sensor_id;sensor_type;location;lat;lon;timestamp;P1;durP1;ratioP1;P2;durP2;ratioP2
20567;SDS011;10442;49.932;11.592;2024-01-10T00:01:26;16.40;;;12.27;;
20567;SDS011;10442;49.932;11.592;2024-01-10T00:03:56;16.70;;;11.80;;
20567;SDS011;10442;49.932;11.592;2024-01-10T00:06:24;21.03;;;13.60;;
20567;SDS011;10442;49.932;11.592;2024-01-10T00:08:52;16.67;;;13.33;;
20567;SDS011;10442;49.932;11.592;2024-01-10T00:11:19;19.17;;;12.67;;
20567;SDS011;10442;49.932;11.592;2024-01-10T00:13:48;17.23;;;12.40;;
20567;SDS011;10442;49.932;11.592;2024-01-10T00:16:15;14.00;;;9.83;;
20567;SDS011;10442;49.932;11.592;2024-01-10T00:18:42;15.13;;;10.20;;
20567;SDS011;10442;49.932;11.592;2024-01-10T00:21:10;21.67;;;12.77;;
20567;SDS011;10442;49.932;11.592;2024-01-10T00:23:38;19.23;;;11.03;;
20567;SDS011;10442;49.932;11.592;2024-01-10T00:26:05;20.70;;;12.50;;
20567;SDS011;10442;49.932;11.592;2024-01-10T00:28:34;23.00;;;13.30;;
20567;SDS011;10442;49.932;11.592;2024-01-10T00:31:02;18.27;;;13.03;;
20567;SDS011;10442;49.932;11.592;2024-01-10T00:33:30;17.97;;;11.53;;
20567;SDS011;10442;49.932;11.592;2024-01-10T00:35:57;19.07;;;12.80;;
20567;SDS011;10442;49.932;11.592;2024-01-10T00:38:24;18.83;;;10.83;;
20567;SDS011;10442;49.932;11.592;2024-01-10T00:40:52;21.17;;;11.27;;
20567;SDS011;10442;49.932;11.592;2024-01-10T00:43:19;15.03;;;11.23;;
20567;SDS011;10442;49.932;11.592;2024-01-10T00:45:47;21.23;;;13.20;;
20567;SDS011;10442;49.932;11.592;2024-01-10T00:48:14;18.63;;;12.73;;
20567;SDS011;10442;49.932;11.592;2024-01-10T00:50:44;16.03;;;11.13;;
20567;SDS011;10442;49.932;11.592;2024-01-10T00:53:11;17.93;;;11.47;;
20567;SDS011;10442;49.932;11.592;2024-01-10T00:55:39;20.47;;;12.37;;
20567;SDS011;10442;49.932;11.592;2024-01-10T00:58:06;17.77;;;12.43;;
20567;SDS011;10442;49.932;11.592;2024-01-10T01:00:33;17.50;;;11.73;;
20567;SDS011;10442;49.932;11.592;2024-01-10T01:03:02;14.57;;;11.40;;
20567;SDS011;10442;49.932;11.592;2024-01-10T01:05:30;18.80;;;12.20;;
20567;SDS011;10442;49.932;11.592;2024-01-10T01:07:59;15.43;;;9.67;;
20567;SDS011;10442;49.932;11.592;2024-01-10T01:10:27;15.83;;;11.27;;
20567;SDS011;10442;49.932;11.592;2024-01-10T01:12:54;18.83;;;10.63;;
20567;SDS011;10442;49.932;11.592;2024-01-10T01:15:22;14.33;;;11.37;;
20567;SDS011;10442;49.932;11.592;2024-01-10T01:17:49;11.20;;;9.73;;
20567;SDS011;10442;49.932;11.592;2024-01-10T01:20:18;19.87;;;10.63;;
20567;SDS011;10442;49.932;11.592;2024-01-10T01:22:46;20.33;;;13.50;;
20567;SDS011;10442;49.932;11.592;2024-01-10T01:25:14;14.70;;;10.80;;
20567;SDS011;10442;49.932;11.592;2024-01-10T01:27:42;15.47;;;10.27;;
20567;SDS011;10442;49.932;11.592;2024-01-10T01:30:09;17.23;;;9.17;;
20567;SDS011;10442;49.932;11.592;2024-01-10T01:32:38;17.23;;;10.57;;
20567;SDS011;10442;49.932;11.592;2024-01-10T01:35:05;13.63;;;9.80;;
20567;SDS011;10442;49.932;11.592;2024-01-10T01:37:33;15.73;;;10.50;;
20567;SDS011;10442;49.932;11.592;2024-01-10T01:40:00;16.37;;;8.83;;
20567;SDS011;10442;49.932;11.592;2024-01-10T01:42:28;14.57;;;9.73;;
20567;SDS011;10442;49.932;11.592;2024-01-10T01:44:55;14.37;;;10.33;;
20567;SDS011;10442;49.932;11.592;2024-01-10T01:47:24;13.53;;;9.60;;
20567;SDS011;10442;49.932;11.592;2024-01-10T01:49:54;14.83;;;9.20;;
20567;SDS011;10442;49.932;11.592;2024-01-10T01:52:21;11.40;;;7.90;;
20567;SDS011;10442;49.932;11.592;2024-01-10T01:54:50;16.53;;;9.23;;
20567;SDS011;10442;49.932;11.592;2024-01-10T01:57:19;16.17;;;8.97;;
20567;SDS011;10442;49.932;11.592;2024-01-10T01:59:46;13.10;;;8.73;;
20567;SDS011;10442;49.932;11.592;2024-01-10T02:02:14;17.73;;;8.00;;
20567;SDS011;10442;49.932;11.592;2024-01-10T02:04:44;16.13;;;9.70;;
20567;SDS011;10442;49.932;11.592;2024-01-10T02:07:14;15.00;;;8.50;;
20567;SDS011;10442;49.932;11.592;2024-01-10T02:09:42;12.20;;;7.80;;
20567;SDS011;10442;49.932;11.592;2024-01-10T02:12:09;12.57;;;7.43;;
20567;SDS011;10442;49.932;11.592;2024-01-10T02:14:37;10.30;;;6.40;;
20567;SDS011;10442;49.932;11.592;2024-01-10T02:17:04;9.90;;;7.10;;
20567;SDS011;10442;49.932;11.592;2024-01-10T02:19:32;9.47;;;7.00;;
20567;SDS011;10442;49.932;11.592;2024-01-10T02:22:01;9.83;;;6.50;;
20567;SDS011;10442;49.932;11.592;2024-01-10T02:24:30;11.27;;;5.73;;
20567;SDS011;10442;49.932;11.592;2024-01-10T02:26:57;7.47;;;5.90;;
20567;SDS011;10442;49.932;11.592;2024-01-10T02:29:24;9.03;;;5.93;;
20567;SDS011;10442;49.932;11.592;2024-01-10T02:31:52;9.83;;;5.77;;
20567;SDS011;10442;49.932;11.592;2024-01-10T02:34:20;9.13;;;5.67;;
20567;SDS011;10442;49.932;11.592;2024-01-10T02:36:47;9.30;;;5.80;;
20567;SDS011;10442;49.932;11.592;2024-01-10T02:39:15;7.00;;;5.70;;
20567;SDS011;10442;49.932;11.592;2024-01-10T02:41:42;8.97;;;6.37;;
20567;SDS011;10442;49.932;11.592;2024-01-10T02:44:10;9.30;;;6.20;;
20567;SDS011;10442;49.932;11.592;2024-01-10T02:46:37;10.47;;;6.37;;
20567;SDS011;10442;49.932;11.592;2024-01-10T02:49:05;15.03;;;7.33;;
20567;SDS011;10442;49.932;11.592;2024-01-10T02:51:32;7.67;;;6.30;;
20567;SDS011;10442;49.932;11.592;2024-01-10T02:54:00;9.23;;;5.60;;
20567;SDS011;10442;49.932;11.592;2024-01-10T02:56:27;11.53;;;6.80;;
20567;SDS011;10442;49.932;11.592;2024-01-10T02:58:54;7.57;;;6.37;;
20567;SDS011;10442;49.932;11.592;2024-01-10T03:01:22;8.10;;;5.63;;
20567;SDS011;10442;49.932;11.592;2024-01-10T03:03:50;9.23;;;6.30;;
20567;SDS011;10442;49.932;11.592;2024-01-10T03:06:17;12.10;;;7.77;;
20567;SDS011;10442;49.932;11.592;2024-01-10T03:08:44;10.30;;;6.27;;
20567;SDS011;10442;49.932;11.592;2024-01-10T03:11:12;8.10;;;6.87;;
20567;SDS011;10442;49.932;11.592;2024-01-10T03:13:39;8.33;;;7.27;;
20567;SDS011;10442;49.932;11.592;2024-01-10T03:16:07;10.73;;;6.70;;
20567;SDS011;10442;49.932;11.592;2024-01-10T03:18:36;8.33;;;7.10;;
20567;SDS011;10442;49.932;11.592;2024-01-10T03:21:05;10.57;;;8.17;;
20567;SDS011;10442;49.932;11.592;2024-01-10T03:23:32;13.07;;;8.33;;
20567;SDS011;10442;49.932;11.592;2024-01-10T03:26:00;12.63;;;7.83;;
20567;SDS011;10442;49.932;11.592;2024-01-10T03:28:27;16.47;;;9.30;;
20567;SDS011;10442;49.932;11.592;2024-01-10T03:30:55;10.40;;;7.50;;
20567;SDS011;10442;49.932;11.592;2024-01-10T03:33:22;12.60;;;7.80;;
20567;SDS011;10442;49.932;11.592;2024-01-10T03:35:50;14.57;;;8.57;;
20567;SDS011;10442;49.932;11.592;2024-01-10T03:38:18;12.53;;;8.10;;
20567;SDS011;10442;49.932;11.592;2024-01-10T03:40:46;9.00;;;8.10;;
20567;SDS011;10442;49.932;11.592;2024-01-10T03:43:13;13.13;;;7.43;;
20567;SDS011;10442;49.932;11.592;2024-01-10T03:45:40;14.53;;;7.83;;
20567;SDS011;10442;49.932;11.592;2024-01-10T03:48:08;10.77;;;7.63;;
20567;SDS011;10442;49.932;11.592;2024-01-10T03:50:36;11.80;;;7.37;;
20567;SDS011;10442;49.932;11.592;2024-01-10T03:53:03;11.27;;;7.20;;
20567;SDS011;10442;49.932;11.592;2024-01-10T03:55:31;12.73;;;7.70;;
20567;SDS011;10442;49.932;11.592;2024-01-10T03:57:58;11.77;;;7.33;;
20567;SDS011;10442;49.932;11.592;2024-01-10T04:00:26;12.97;;;7.83;;
20567;SDS011;10442;49.932;11.592;2024-01-10T04:02:53;12.00;;;8.57;;
20567;SDS011;10442;49.932;11.592;2024-01-10T04:05:21;7.63;;;6.40;;
20567;SDS011;10442;49.932;11.592;2024-01-10T04:07:49;6.60;;;5.60;;
20567;SDS011;10442;49.932;11.592;2024-01-10T04:10:16;8.27;;;6.00;;
20567;SDS011;10442;49.932;11.592;2024-01-10T04:12:44;14.23;;;6.27;;
20567;SDS011;10442;49.932;11.592;2024-01-10T04:15:12;9.40;;;6.63;;
20567;SDS011;10442;49.932;11.592;2024-01-10T04:17:39;12.57;;;7.73;;
20567;SDS011;10442;49.932;11.592;2024-01-10T04:20:07;8.77;;;6.37;;
20567;SDS011;10442;49.932;11.592;2024-01-10T04:22:36;10.60;;;6.77;;
20567;SDS011;10442;49.932;11.592;2024-01-10T04:25:06;10.53;;;7.13;;
20567;SDS011;10442;49.932;11.592;2024-01-10T04:27:34;11.83;;;7.20;;
20567;SDS011;10442;49.932;11.592;2024-01-10T04:30:02;10.63;;;7.20;;
20567;SDS011;10442;49.932;11.592;2024-01-10T04:32:29;9.50;;;6.57;;
20567;SDS011;10442;49.932;11.592;2024-01-10T04:34:57;9.53;;;7.40;;
20567;SDS011;10442;49.932;11.592;2024-01-10T04:37:24;11.90;;;7.00;;
20567;SDS011;10442;49.932;11.592;2024-01-10T04:39:53;12.80;;;7.57;;
20567;SDS011;10442;49.932;11.592;2024-01-10T04:42:20;14.43;;;8.40;;
20567;SDS011;10442;49.932;11.592;2024-01-10T04:44:47;10.60;;;6.27;;
20567;SDS011;10442;49.932;11.592;2024-01-10T04:47:16;10.00;;;6.57;;
20567;SDS011;10442;49.932;11.592;2024-01-10T04:49:44;10.07;;;6.57;;
20567;SDS011;10442;49.932;11.592;2024-01-10T04:52:11;12.30;;;7.13;;
20567;SDS011;10442;49.932;11.592;2024-01-10T04:54:39;9.40;;;7.53;;
20567;SDS011;10442;49.932;11.592;2024-01-10T04:57:06;9.50;;;6.73;;
20567;SDS011;10442;49.932;11.592;2024-01-10T04:59:36;12.87;;;7.67;;
20567;SDS011;10442;49.932;11.592;2024-01-10T05:02:04;10.20;;;5.53;;
20567;SDS011;10442;49.932;11.592;2024-01-10T05:04:31;9.00;;;6.80;;
20567;SDS011;10442;49.932;11.592;2024-01-10T05:06:59;10.03;;;7.67;;
20567;SDS011;10442;49.932;11.592;2024-01-10T05:09:27;13.27;;;7.37;;
20567;SDS011;10442;49.932;11.592;2024-01-10T05:11:54;13.03;;;7.63;;
20567;SDS011;10442;49.932;11.592;2024-01-10T05:14:22;11.90;;;6.67;;
20567;SDS011;10442;49.932;11.592;2024-01-10T05:16:50;11.83;;;7.27;;
20567;SDS011;10442;49.932;11.592;2024-01-10T05:19:20;13.00;;;7.30;;
20567;SDS011;10442;49.932;11.592;2024-01-10T05:21:48;15.20;;;7.87;;
20567;SDS011;10442;49.932;11.592;2024-01-10T05:24:16;11.83;;;6.20;;
20567;SDS011;10442;49.932;11.592;2024-01-10T05:26:45;12.90;;;10.43;;
20567;SDS011;10442;49.932;11.592;2024-01-10T05:29:18;8.77;;;6.23;;
20567;SDS011;10442;49.932;11.592;2024-01-10T05:31:46;13.30;;;8.10;;
20567;SDS011;10442;49.932;11.592;2024-01-10T05:34:14;12.40;;;8.10;;
20567;SDS011;10442;49.932;11.592;2024-01-10T05:36:42;10.57;;;7.53;;
20567;SDS011;10442;49.932;11.592;2024-01-10T05:39:10;9.27;;;6.83;;
20567;SDS011;10442;49.932;11.592;2024-01-10T05:41:38;10.53;;;7.60;;
20567;SDS011;10442;49.932;11.592;2024-01-10T05:44:08;11.03;;;7.20;;
20567;SDS011;10442;49.932;11.592;2024-01-10T05:46:36;14.67;;;7.77;;
20567;SDS011;10442;49.932;11.592;2024-01-10T05:49:06;14.93;;;8.87;;
20567;SDS011;10442;49.932;11.592;2024-01-10T05:51:34;12.23;;;7.87;;
20567;SDS011;10442;49.932;11.592;2024-01-10T05:54:01;10.40;;;7.27;;
20567;SDS011;10442;49.932;11.592;2024-01-10T05:56:28;10.47;;;7.23;;
20567;SDS011;10442;49.932;11.592;2024-01-10T05:58:56;9.70;;;7.13;;
20567;SDS011;10442;49.932;11.592;2024-01-10T06:01:25;12.73;;;8.60;;
20567;SDS011;10442;49.932;11.592;2024-01-10T06:03:52;13.83;;;7.17;;
20567;SDS011;10442;49.932;11.592;2024-01-10T06:06:21;15.10;;;10.37;;
20567;SDS011;10442;49.932;11.592;2024-01-10T06:08:51;12.63;;;9.57;;
20567;SDS011;10442;49.932;11.592;2024-01-10T06:11:19;15.30;;;9.33;;
20567;SDS011;10442;49.932;11.592;2024-01-10T06:13:46;15.50;;;10.43;;
20567;SDS011;10442;49.932;11.592;2024-01-10T06:16:23;13.23;;;9.17;;
20567;SDS011;10442;49.932;11.592;2024-01-10T06:18:51;12.33;;;7.17;;
20567;SDS011;10442;49.932;11.592;2024-01-10T06:21:19;11.17;;;7.57;;
20567;SDS011;10442;49.932;11.592;2024-01-10T06:23:47;12.40;;;8.03;;
20567;SDS011;10442;49.932;11.592;2024-01-10T06:26:17;11.63;;;8.57;;
20567;SDS011;10442;49.932;11.592;2024-01-10T06:28:44;9.77;;;8.23;;
20567;SDS011;10442;49.932;11.592;2024-01-10T06:31:13;12.73;;;8.53;;
20567;SDS011;10442;49.932;11.592;2024-01-10T06:33:41;11.93;;;8.70;;
20567;SDS011;10442;49.932;11.592;2024-01-10T06:36:08;11.70;;;8.03;;
20567;SDS011;10442;49.932;11.592;2024-01-10T06:38:40;17.53;;;8.10;;
20567;SDS011;10442;49.932;11.592;2024-01-10T06:41:08;20.97;;;12.83;;
20567;SDS011;10442;49.932;11.592;2024-01-10T06:43:36;17.47;;;10.97;;
20567;SDS011;10442;49.932;11.592;2024-01-10T06:46:05;10.90;;;8.40;;
20567;SDS011;10442;49.932;11.592;2024-01-10T06:48:34;12.73;;;9.17;;
20567;SDS011;10442;49.932;11.592;2024-01-10T06:51:09;14.17;;;8.10;;
20567;SDS011;10442;49.932;11.592;2024-01-10T06:53:39;14.93;;;8.43;;
20567;SDS011;10442;49.932;11.592;2024-01-10T06:56:07;29.67;;;18.57;;
20567;SDS011;10442;49.932;11.592;2024-01-10T06:58:37;14.50;;;9.20;;
20567;SDS011;10442;49.932;11.592;2024-01-10T07:01:15;17.30;;;11.03;;
20567;SDS011;10442;49.932;11.592;2024-01-10T07:03:44;11.77;;;9.13;;
20567;SDS011;10442;49.932;11.592;2024-01-10T07:06:12;12.10;;;9.33;;
20567;SDS011;10442;49.932;11.592;2024-01-10T07:08:44;26.00;;;11.77;;
20567;SDS011;10442;49.932;11.592;2024-01-10T07:11:12;18.97;;;9.67;;
20567;SDS011;10442;49.932;11.592;2024-01-10T07:13:41;11.30;;;7.30;;
20567;SDS011;10442;49.932;11.592;2024-01-10T07:16:11;15.40;;;10.37;;
20567;SDS011;10442;49.932;11.592;2024-01-10T07:18:43;15.60;;;10.10;;
20567;SDS011;10442;49.932;11.592;2024-01-10T07:21:12;12.77;;;9.67;;
20567;SDS011;10442;49.932;11.592;2024-01-10T07:23:40;14.93;;;8.70;;
20567;SDS011;10442;49.932;11.592;2024-01-10T07:26:12;14.47;;;9.13;;
20567;SDS011;10442;49.932;11.592;2024-01-10T07:28:43;13.70;;;7.93;;
20567;SDS011;10442;49.932;11.592;2024-01-10T07:31:11;15.80;;;9.90;;
20567;SDS011;10442;49.932;11.592;2024-01-10T07:33:40;20.70;;;14.07;;
20567;SDS011;10442;49.932;11.592;2024-01-10T07:36:08;19.60;;;11.13;;
20567;SDS011;10442;49.932;11.592;2024-01-10T07:38:36;21.67;;;13.13;;
20567;SDS011;10442;49.932;11.592;2024-01-10T07:41:03;19.00;;;12.33;;
20567;SDS011;10442;49.932;11.592;2024-01-10T07:43:32;19.23;;;11.33;;
20567;SDS011;10442;49.932;11.592;2024-01-10T07:45:59;18.83;;;11.37;;
20567;SDS011;10442;49.932;11.592;2024-01-10T07:48:28;14.70;;;9.87;;
20567;SDS011;10442;49.932;11.592;2024-01-10T07:50:58;15.57;;;9.40;;
20567;SDS011;10442;49.932;11.592;2024-01-10T07:53:26;15.10;;;9.17;;
20567;SDS011;10442;49.932;11.592;2024-01-10T07:55:55;14.90;;;9.33;;
20567;SDS011;10442;49.932;11.592;2024-01-10T07:58:24;16.03;;;9.17;;
20567;SDS011;10442;49.932;11.592;2024-01-10T08:00:52;13.27;;;9.60;;
20567;SDS011;10442;49.932;11.592;2024-01-10T08:03:21;15.83;;;13.00;;
20567;SDS011;10442;49.932;11.592;2024-01-10T08:05:48;18.27;;;14.07;;
20567;SDS011;10442;49.932;11.592;2024-01-10T08:08:17;18.43;;;12.47;;
20567;SDS011;10442;49.932;11.592;2024-01-10T08:10:45;15.63;;;12.03;;
20567;SDS011;10442;49.932;11.592;2024-01-10T08:13:13;16.10;;;11.20;;
20567;SDS011;10442;49.932;11.592;2024-01-10T08:15:41;18.23;;;12.43;;
20567;SDS011;10442;49.932;11.592;2024-01-10T08:18:10;17.70;;;13.07;;
20567;SDS011;10442;49.932;11.592;2024-01-10T08:20:38;19.67;;;13.67;;
20567;SDS011;10442;49.932;11.592;2024-01-10T08:23:07;16.03;;;10.73;;
20567;SDS011;10442;49.932;11.592;2024-01-10T08:25:35;15.33;;;12.47;;
20567;SDS011;10442;49.932;11.592;2024-01-10T08:28:05;18.93;;;14.83;;
20567;SDS011;10442;49.932;11.592;2024-01-10T08:30:35;17.83;;;12.30;;
20567;SDS011;10442;49.932;11.592;2024-01-10T08:33:05;12.90;;;9.73;;
20567;SDS011;10442;49.932;11.592;2024-01-10T08:35:33;14.37;;;11.23;;
20567;SDS011;10442;49.932;11.592;2024-01-10T08:38:00;14.47;;;9.83;;
20567;SDS011;10442;49.932;11.592;2024-01-10T08:40:32;15.03;;;9.80;;
20567;SDS011;10442;49.932;11.592;2024-01-10T08:43:02;17.97;;;12.37;;
20567;SDS011;10442;49.932;11.592;2024-01-10T08:45:30;14.50;;;10.90;;
20567;SDS011;10442;49.932;11.592;2024-01-10T08:47:57;19.37;;;10.80;;
20567;SDS011;10442;49.932;11.592;2024-01-10T08:50:26;14.43;;;10.13;;
20567;SDS011;10442;49.932;11.592;2024-01-10T08:52:55;18.03;;;10.13;;
20567;SDS011;10442;49.932;11.592;2024-01-10T08:55:25;18.17;;;10.50;;
20567;SDS011;10442;49.932;11.592;2024-01-10T08:57:53;17.37;;;11.80;;
20567;SDS011;10442;49.932;11.592;2024-01-10T09:00:21;13.33;;;9.37;;
20567;SDS011;10442;49.932;11.592;2024-01-10T09:02:48;13.83;;;10.10;;
20567;SDS011;10442;49.932;11.592;2024-01-10T09:05:17;11.63;;;8.77;;
20567;SDS011;10442;49.932;11.592;2024-01-10T09:07:49;11.33;;;9.00;;
20567;SDS011;10442;49.932;11.592;2024-01-10T09:10:18;17.73;;;10.00;;
20567;SDS011;10442;49.932;11.592;2024-01-10T09:12:49;17.00;;;11.13;;
20567;SDS011;10442;49.932;11.592;2024-01-10T09:15:18;24.47;;;9.77;;
20567;SDS011;10442;49.932;11.592;2024-01-10T09:17:45;16.63;;;9.33;;
20567;SDS011;10442;49.932;11.592;2024-01-10T09:20:14;11.50;;;9.17;;
20567;SDS011;10442;49.932;11.592;2024-01-10T09:22:42;12.27;;;8.73;;
20567;SDS011;10442;49.932;11.592;2024-01-10T09:25:10;12.10;;;8.87;;
20567;SDS011;10442;49.932;11.592;2024-01-10T09:27:39;14.40;;;11.10;;
20567;SDS011;10442;49.932;11.592;2024-01-10T09:30:15;13.50;;;9.50;;
20567;SDS011;10442;49.932;11.592;2024-01-10T09:32:45;17.87;;;12.10;;
20567;SDS011;10442;49.932;11.592;2024-01-10T09:35:14;17.60;;;10.80;;
20567;SDS011;10442;49.932;11.592;2024-01-10T09:37:43;15.73;;;11.60;;
20567;SDS011;10442;49.932;11.592;2024-01-10T09:40:13;12.23;;;9.93;;
20567;SDS011;10442;49.932;11.592;2024-01-10T09:42:43;15.70;;;10.47;;
20567;SDS011;10442;49.932;11.592;2024-01-10T09:45:11;14.57;;;10.03;;
20567;SDS011;10442;49.932;11.592;2024-01-10T09:47:41;17.27;;;10.13;;
20567;SDS011;10442;49.932;11.592;2024-01-10T09:50:11;10.63;;;7.97;;
20567;SDS011;10442;49.932;11.592;2024-01-10T09:52:42;12.63;;;8.57;;
20567;SDS011;10442;49.932;11.592;2024-01-10T09:55:14;13.33;;;9.23;;
20567;SDS011;10442;49.932;11.592;2024-01-10T09:57:44;13.77;;;9.33;;
20567;SDS011;10442;49.932;11.592;2024-01-10T10:00:12;13.90;;;10.47;;
20567;SDS011;10442;49.932;11.592;2024-01-10T10:02:43;14.80;;;10.27;;
20567;SDS011;10442;49.932;11.592;2024-01-10T10:05:16;12.97;;;9.87;;
20567;SDS011;10442;49.932;11.592;2024-01-10T10:10:14;15.07;;;10.43;;
20567;SDS011;10442;49.932;11.592;2024-01-10T10:12:53;10.73;;;8.47;;
20567;SDS011;10442;49.932;11.592;2024-01-10T10:15:21;17.03;;;9.63;;
20567;SDS011;10442;49.932;11.592;2024-01-10T10:17:51;13.03;;;9.40;;
20567;SDS011;10442;49.932;11.592;2024-01-10T10:20:25;12.40;;;10.27;;
20567;SDS011;10442;49.932;11.592;2024-01-10T10:25:48;11.87;;;9.47;;
20567;SDS011;10442;49.932;11.592;2024-01-10T10:28:16;11.30;;;9.00;;
20567;SDS011;10442;49.932;11.592;2024-01-10T10:30:55;16.37;;;10.73;;
20567;SDS011;10442;49.932;11.592;2024-01-10T10:33:24;16.90;;;9.50;;
20567;SDS011;10442;49.932;11.592;2024-01-10T10:35:52;15.20;;;10.43;;
20567;SDS011;10442;49.932;11.592;2024-01-10T10:38:22;14.63;;;10.57;;
20567;SDS011;10442;49.932;11.592;2024-01-10T10:40:50;17.80;;;12.20;;
20567;SDS011;10442;49.932;11.592;2024-01-10T10:43:19;14.20;;;10.80;;
20567;SDS011;10442;49.932;11.592;2024-01-10T10:45:49;15.97;;;12.63;;
20567;SDS011;10442;49.932;11.592;2024-01-10T10:48:19;13.40;;;10.30;;
20567;SDS011;10442;49.932;11.592;2024-01-10T10:50:59;15.77;;;9.93;;
20567;SDS011;10442;49.932;11.592;2024-01-10T10:53:39;15.63;;;10.27;;
20567;SDS011;10442;49.932;11.592;2024-01-10T10:56:13;17.03;;;10.60;;
20567;SDS011;10442;49.932;11.592;2024-01-10T10:58:42;13.30;;;9.87;;
20567;SDS011;10442;49.932;11.592;2024-01-10T11:01:11;15.70;;;11.63;;
20567;SDS011;10442;49.932;11.592;2024-01-10T11:03:41;15.00;;;10.80;;
20567;SDS011;10442;49.932;11.592;2024-01-10T11:06:12;15.77;;;10.27;;
20567;SDS011;10442;49.932;11.592;2024-01-10T11:08:44;12.83;;;9.27;;
20567;SDS011;10442;49.932;11.592;2024-01-10T11:11:31;13.13;;;9.67;;
20567;SDS011;10442;49.932;11.592;2024-01-10T11:17:21;14.83;;;11.07;;
20567;SDS011;10442;49.932;11.592;2024-01-10T11:25:29;17.47;;;11.33;;
20567;SDS011;10442;49.932;11.592;2024-01-10T11:28:04;14.03;;;11.37;;
20567;SDS011;10442;49.932;11.592;2024-01-10T11:30:47;12.83;;;10.73;;
20567;SDS011;10442;49.932;11.592;2024-01-10T11:33:20;13.53;;;9.73;;
20567;SDS011;10442;49.932;11.592;2024-01-10T11:38:54;11.07;;;8.87;;
20567;SDS011;10442;49.932;11.592;2024-01-10T11:41:24;14.03;;;9.40;;
20567;SDS011;10442;49.932;11.592;2024-01-10T11:49:16;16.47;;;12.67;;
20567;SDS011;10442;49.932;11.592;2024-01-10T11:51:47;14.30;;;9.07;;
20567;SDS011;10442;49.932;11.592;2024-01-10T11:54:35;11.33;;;8.43;;
20567;SDS011;10442;49.932;11.592;2024-01-10T11:57:07;10.77;;;8.87;;
20567;SDS011;10442;49.932;11.592;2024-01-10T11:59:42;11.43;;;8.27;;
20567;SDS011;10442;49.932;11.592;2024-01-10T12:02:14;11.13;;;8.17;;
20567;SDS011;10442;49.932;11.592;2024-01-10T12:04:43;14.40;;;9.33;;
20567;SDS011;10442;49.932;11.592;2024-01-10T12:07:15;9.63;;;8.03;;
20567;SDS011;10442;49.932;11.592;2024-01-10T12:09:45;13.73;;;9.60;;
20567;SDS011;10442;49.932;11.592;2024-01-10T12:12:14;10.47;;;7.33;;
20567;SDS011;10442;49.932;11.592;2024-01-10T12:14:42;10.20;;;9.03;;
20567;SDS011;10442;49.932;11.592;2024-01-10T12:17:11;11.53;;;8.87;;
20567;SDS011;10442;49.932;11.592;2024-01-10T12:19:38;10.57;;;9.47;;
20567;SDS011;10442;49.932;11.592;2024-01-10T12:22:06;10.03;;;8.97;;
20567;SDS011;10442;49.932;11.592;2024-01-10T12:25:11;13.33;;;9.93;;
20567;SDS011;10442;49.932;11.592;2024-01-10T12:27:31;9.57;;;8.67;;
20567;SDS011;10442;49.932;11.592;2024-01-10T12:29:59;11.87;;;9.23;;
20567;SDS011;10442;49.932;11.592;2024-01-10T12:32:30;10.73;;;8.60;;
20567;SDS011;10442;49.932;11.592;2024-01-10T12:35:02;11.87;;;9.50;;
20567;SDS011;10442;49.932;11.592;2024-01-10T12:37:32;12.53;;;9.67;;
20567;SDS011;10442;49.932;11.592;2024-01-10T12:39:59;11.67;;;8.50;;
20567;SDS011;10442;49.932;11.592;2024-01-10T12:42:29;11.60;;;8.23;;
20567;SDS011;10442;49.932;11.592;2024-01-10T12:44:56;11.40;;;9.07;;
20567;SDS011;10442;49.932;11.592;2024-01-10T12:47:24;12.27;;;9.27;;
20567;SDS011;10442;49.932;11.592;2024-01-10T12:49:53;13.00;;;8.93;;
20567;SDS011;10442;49.932;11.592;2024-01-10T12:52:22;11.57;;;8.37;;
20567;SDS011;10442;49.932;11.592;2024-01-10T12:54:51;10.20;;;7.23;;
20567;SDS011;10442;49.932;11.592;2024-01-10T12:57:21;10.47;;;8.80;;
20567;SDS011;10442;49.932;11.592;2024-01-10T12:59:48;14.23;;;9.07;;
20567;SDS011;10442;49.932;11.592;2024-01-10T13:02:17;13.63;;;10.23;;
20567;SDS011;10442;49.932;11.592;2024-01-10T13:04:45;12.30;;;10.37;;
20567;SDS011;10442;49.932;11.592;2024-01-10T13:07:12;13.40;;;9.87;;
20567;SDS011;10442;49.932;11.592;2024-01-10T13:09:40;16.37;;;12.37;;
20567;SDS011;10442;49.932;11.592;2024-01-10T13:12:08;16.67;;;10.63;;
20567;SDS011;10442;49.932;11.592;2024-01-10T13:14:36;13.80;;;9.63;;
20567;SDS011;10442;49.932;11.592;2024-01-10T13:17:03;14.03;;;9.47;;
20567;SDS011;10442;49.932;11.592;2024-01-10T13:19:32;10.07;;;8.13;;
20567;SDS011;10442;49.932;11.592;2024-01-10T13:22:00;12.20;;;9.13;;
20567;SDS011;10442;49.932;11.592;2024-01-10T13:24:30;11.17;;;8.23;;
20567;SDS011;10442;49.932;11.592;2024-01-10T13:26:58;10.87;;;9.30;;
20567;SDS011;10442;49.932;11.592;2024-01-10T13:29:26;15.50;;;9.60;;
20567;SDS011;10442;49.932;11.592;2024-01-10T13:31:53;12.10;;;9.33;;
20567;SDS011;10442;49.932;11.592;2024-01-10T13:34:22;9.37;;;8.47;;
20567;SDS011;10442;49.932;11.592;2024-01-10T13:36:51;13.93;;;8.93;;
20567;SDS011;10442;49.932;11.592;2024-01-10T13:39:18;9.70;;;8.67;;
20567;SDS011;10442;49.932;11.592;2024-01-10T13:41:46;13.97;;;9.07;;
20567;SDS011;10442;49.932;11.592;2024-01-10T13:44:15;12.80;;;9.73;;
20567;SDS011;10442;49.932;11.592;2024-01-10T13:46:43;12.67;;;8.80;;
20567;SDS011;10442;49.932;11.592;2024-01-10T13:49:10;12.67;;;10.53;;
20567;SDS011;10442;49.932;11.592;2024-01-10T13:51:39;14.60;;;9.60;;
20567;SDS011;10442;49.932;11.592;2024-01-10T13:54:08;10.67;;;8.93;;
20567;SDS011;10442;49.932;11.592;2024-01-10T13:56:38;16.47;;;10.90;;
20567;SDS011;10442;49.932;11.592;2024-01-10T13:59:07;14.00;;;10.60;;
20567;SDS011;10442;49.932;11.592;2024-01-10T14:01:34;12.97;;;9.90;;
20567;SDS011;10442;49.932;11.592;2024-01-10T14:04:04;15.47;;;9.83;;
20567;SDS011;10442;49.932;11.592;2024-01-10T14:06:32;13.23;;;9.93;;
20567;SDS011;10442;49.932;11.592;2024-01-10T14:09:00;12.07;;;10.07;;
20567;SDS011;10442;49.932;11.592;2024-01-10T14:11:31;15.47;;;11.27;;
20567;SDS011;10442;49.932;11.592;2024-01-10T14:14:00;15.87;;;11.50;;
20567;SDS011;10442;49.932;11.592;2024-01-10T14:16:29;16.57;;;12.93;;
20567;SDS011;10442;49.932;11.592;2024-01-10T14:18:58;17.10;;;12.33;;
20567;SDS011;10442;49.932;11.592;2024-01-10T14:21:26;19.27;;;14.80;;
20567;SDS011;10442;49.932;11.592;2024-01-10T14:23:55;13.97;;;10.67;;
20567;SDS011;10442;49.932;11.592;2024-01-10T14:26:22;12.27;;;9.57;;
20567;SDS011;10442;49.932;11.592;2024-01-10T14:28:51;11.40;;;10.20;;
20567;SDS011;10442;49.932;11.592;2024-01-10T14:31:22;12.17;;;10.93;;
20567;SDS011;10442;49.932;11.592;2024-01-10T14:34:04;17.10;;;12.37;;
20567;SDS011;10442;49.932;11.592;2024-01-10T14:36:37;14.20;;;10.10;;
20567;SDS011;10442;49.932;11.592;2024-01-10T14:39:04;13.03;;;10.80;;
20567;SDS011;10442;49.932;11.592;2024-01-10T14:41:35;16.07;;;11.10;;
20567;SDS011;10442;49.932;11.592;2024-01-10T14:44:03;13.20;;;10.30;;
20567;SDS011;10442;49.932;11.592;2024-01-10T14:46:31;12.57;;;9.60;;
20567;SDS011;10442;49.932;11.592;2024-01-10T14:48:59;14.70;;;10.57;;
20567;SDS011;10442;49.932;11.592;2024-01-10T14:51:27;11.57;;;8.30;;